sensor_id;sensor_type;location;lat;lon;timestamp;pressure;altitude;pressure_sealevel;temperature;humidity
7309;BME280;3695;53.330;9.876;2023-02-02T00:02:01;103017.72;;;4.76;100.00
7309;BME280;3695;53.330;9.876;2023-02-02T00:04:29;103023.81;;;4.78;100.00
7309;BME280;3695;53.330;9.876;2023-02-02T00:06:56;102997.44;;;4.83;100.00
7309;BME280;3695;53.330;9.876;2023-02-02T00:09:25;102997.44;;;4.83;100.00
7309;BME280;3695;53.330;9.876;2023-02-02T00:11:54;103003.22;;;4.99;100.00
7309;BME280;3695;53.330;9.876;2023-02-02T00:14:21;102982.03;;;4.85;100.00
7309;BME280;3695;53.330;9.876;2023-02-02T00:16:49;102979.72;;;5.13;100.00
7309;BME280;3695;53.330;9.876;2023-02-02T00:19:17;102982.00;;;4.96;100.00
7309;BME280;3695;53.330;9.876;2023-02-02T00:21:44;103007.91;;;5.18;100.00
7309;BME280;3695;53.330;9.876;2023-02-02T00:24:14;103017.78;;;4.97;100.00
7309;BME280;3695;53.330;9.876;2023-02-02T00:26:43;103054.78;;;5.04;100.00
7309;BME280;3695;53.330;9.876;2023-02-02T00:29:14;103083.50;;;4.93;100.00
7309;BME280;3695;53.330;9.876;2023-02-02T00:31:40;103137.63;;;4.88;100.00
7309;BME280;3695;53.330;9.876;2023-02-02T00:34:09;103222.84;;;4.64;100.00
7309;BME280;3695;53.330;9.876;2023-02-02T00:36:35;103279.50;;;4.72;100.00
7309;BME280;3695;53.330;9.876;2023-02-02T00:39:02;103338.63;;;4.72;100.00
7309;BME280;3695;53.330;9.876;2023-02-02T00:41:29;103370.69;;;4.62;100.00
7309;BME280;3695;53.330;9.876;2023-02-02T00:43:55;103431.00;;;4.82;100.00
7309;BME280;3695;53.330;9.876;2023-02-02T00:46:41;103481.97;;;4.71;100.00
7309;BME280;3695;53.330;9.876;2023-02-02T00:49:08;103553.25;;;4.77;100.00
7309;BME280;3695;53.330;9.876;2023-02-02T00:51:35;103594.59;;;4.87;100.00
7309;BME280;3695;53.330;9.876;2023-02-02T00:54:02;103655.44;;;4.88;100.00
7309;BME280;3695;53.330;9.876;2023-02-02T00:56:29;103695.88;;;4.73;100.00
7309;BME280;3695;53.330;9.876;2023-02-02T00:58:55;103742.94;;;4.92;100.00
7309;BME280;3695;53.330;9.876;2023-02-02T01:01:22;103777.88;;;4.79;100.00
7309;BME280;3695;53.330;9.876;2023-02-02T01:03:50;103860.09;;;4.82;100.00
7309;BME280;3695;53.330;9.876;2023-02-02T01:06:17;103890.25;;;4.72;100.00
7309;BME280;3695;53.330;9.876;2023-02-02T01:08:43;103993.56;;;4.95;100.00
7309;BME280;3695;53.330;9.876;2023-02-02T01:11:10;104030.63;;;4.90;100.00
7309;BME280;3695;53.330;9.876;2023-02-02T01:13:37;104171.53;;;5.00;100.00
7309;BME280;3695;53.330;9.876;2023-02-02T01:16:04;104191.69;;;5.07;100.00
7309;BME280;3695;53.330;9.876;2023-02-02T01:18:31;104196.44;;;4.90;100.00
7309;BME280;3695;53.330;9.876;2023-02-02T01:21:00;104192.19;;;5.00;100.00
7309;BME280;3695;53.330;9.876;2023-02-02T01:23:28;104154.94;;;4.94;100.00
7309;BME280;3695;53.330;9.876;2023-02-02T01:25:55;104133.91;;;5.00;100.00
7309;BME280;3695;53.330;9.876;2023-02-02T01:28:22;104135.31;;;5.06;100.00
7309;BME280;3695;53.330;9.876;2023-02-02T01:30:49;104172.75;;;5.09;100.00
7309;BME280;3695;53.330;9.876;2023-02-02T01:33:15;104195.91;;;5.12;100.00
7309;BME280;3695;53.330;9.876;2023-02-02T01:35:45;104202.06;;;4.99;100.00
7309;BME280;3695;53.330;9.876;2023-02-02T01:38:13;104227.22;;;4.98;100.00
7309;BME280;3695;53.330;9.876;2023-02-02T01:40:44;104224.63;;;5.11;100.00
7309;BME280;3695;53.330;9.876;2023-02-02T01:43:20;104214.94;;;4.94;100.00
7309;BME280;3695;53.330;9.876;2023-02-02T01:45:47;104232.03;;;4.93;100.00
7309;BME280;3695;53.330;9.876;2023-02-02T01:48:14;104244.88;;;5.02;100.00
7309;BME280;3695;53.330;9.876;2023-02-02T01:50:41;104238.84;;;4.99;100.00
7309;BME280;3695;53.330;9.876;2023-02-02T01:53:09;104231.63;;;4.99;100.00
7309;BME280;3695;53.330;9.876;2023-02-02T01:55:38;104213.78;;;4.98;100.00
7309;BME280;3695;53.330;9.876;2023-02-02T01:58:09;104197.81;;;5.10;100.00
7309;BME280;3695;53.330;9.876;2023-02-02T02:00:38;104186.00;;;5.26;100.00
7309;BME280;3695;53.330;9.876;2023-02-02T02:03:08;104152.41;;;5.05;100.00
7309;BME280;3695;53.330;9.876;2023-02-02T02:05:40;104161.16;;;5.09;100.00
7309;BME280;3695;53.330;9.876;2023-02-02T02:08:12;104167.66;;;5.19;100.00
7309;BME280;3695;53.330;9.876;2023-02-02T02:10:40;104151.56;;;5.04;100.00
7309;BME280;3695;53.330;9.876;2023-02-02T02:13:07;104136.75;;;5.12;100.00
7309;BME280;3695;53.330;9.876;2023-02-02T02:15:41;104103.59;;;5.25;100.00
7309;BME280;3695;53.330;9.876;2023-02-02T02:18:44;104054.97;;;5.01;100.00
7309;BME280;3695;53.330;9.876;2023-02-02T02:21:25;104061.00;;;5.05;100.00
7309;BME280;3695;53.330;9.876;2023-02-02T02:24:55;104035.69;;;5.22;100.00
7309;BME280;3695;53.330;9.876;2023-02-02T02:31:01;103951.53;;;5.20;100.00
7309;BME280;3695;53.330;9.876;2023-02-02T02:33:37;103943.16;;;5.12;100.00
7309;BME280;3695;53.330;9.876;2023-02-02T02:36:15;103939.06;;;5.19;100.00
7309;BME280;3695;53.330;9.876;2023-02-02T02:38:48;103946.38;;;5.17;100.00
7309;BME280;3695;53.330;9.876;2023-02-02T02:41:19;104019.13;;;5.28;100.00
7309;BME280;3695;53.330;9.876;2023-02-02T02:43:49;104023.06;;;5.10;100.00
7309;BME280;3695;53.330;9.876;2023-02-02T02:46:19;104032.22;;;5.20;100.00
7309;BME280;3695;53.330;9.876;2023-02-02T02:48:47;104037.25;;;5.12;100.00
7309;BME280;3695;53.330;9.876;2023-02-02T02:51:44;104079.09;;;5.16;100.00
7309;BME280;3695;53.330;9.876;2023-02-02T02:54:11;104060.03;;;5.06;100.00
7309;BME280;3695;53.330;9.876;2023-02-02T02:56:56;104065.06;;;5.25;100.00
7309;BME280;3695;53.330;9.876;2023-02-02T02:59:34;104043.19;;;5.17;100.00
7309;BME280;3695;53.330;9.876;2023-02-02T03:02:13;104044.72;;;5.21;100.00
7309;BME280;3695;53.330;9.876;2023-02-02T03:04:52;104036.72;;;5.19;100.00
7309;BME280;3695;53.330;9.876;2023-02-02T03:07:23;104028.63;;;5.33;100.00
7309;BME280;3695;53.330;9.876;2023-02-02T03:09:51;104014.34;;;5.19;100.00
7309;BME280;3695;53.330;9.876;2023-02-02T03:12:20;104023.59;;;5.15;100.00
7309;BME280;3695;53.330;9.876;2023-02-02T03:14:46;104047.00;;;5.27;100.00
7309;BME280;3695;53.330;9.876;2023-02-02T03:17:13;104059.69;;;5.25;100.00
7309;BME280;3695;53.330;9.876;2023-02-02T03:19:39;104087.75;;;5.21;100.00
7309;BME280;3695;53.330;9.876;2023-02-02T03:22:07;104140.41;;;5.11;100.00
7309;BME280;3695;53.330;9.876;2023-02-02T03:24:33;104170.25;;;5.20;100.00
7309;BME280;3695;53.330;9.876;2023-02-02T03:27:00;104207.22;;;5.31;100.00
7309;BME280;3695;53.330;9.876;2023-02-02T03:29:27;104206.34;;;5.16;100.00
7309;BME280;3695;53.330;9.876;2023-02-02T03:31:53;104250.06;;;5.05;100.00
7309;BME280;3695;53.330;9.876;2023-02-02T03:34:20;104305.19;;;5.13;100.00
7309;BME280;3695;53.330;9.876;2023-02-02T03:36:46;104389.69;;;5.09;100.00
7309;BME280;3695;53.330;9.876;2023-02-02T03:39:14;104519.47;;;5.12;100.00
7309;BME280;3695;53.330;9.876;2023-02-02T03:41:41;104624.19;;;5.45;100.00
7309;BME280;3695;53.330;9.876;2023-02-02T03:44:07;104669.00;;;5.15;100.00
7309;BME280;3695;53.330;9.876;2023-02-02T03:46:33;104778.41;;;4.98;100.00
7309;BME280;3695;53.330;9.876;2023-02-02T03:49:00;104872.63;;;5.13;100.00
7309;BME280;3695;53.330;9.876;2023-02-02T03:51:26;104962.75;;;5.04;100.00
7309;BME280;3695;53.330;9.876;2023-02-02T03:53:53;105046.91;;;5.06;100.00
7309;BME280;3695;53.330;9.876;2023-02-02T03:56:21;105108.50;;;4.93;100.00
7309;BME280;3695;53.330;9.876;2023-02-02T03:58:47;105084.63;;;5.04;100.00
7309;BME280;3695;53.330;9.876;2023-02-02T04:01:13;105096.16;;;5.25;100.00
7309;BME280;3695;53.330;9.876;2023-02-02T04:03:40;105042.69;;;5.00;100.00
7309;BME280;3695;53.330;9.876;2023-02-02T04:06:07;105051.97;;;5.12;100.00
7309;BME280;3695;53.330;9.876;2023-02-02T04:08:34;105017.06;;;5.11;100.00
7309;BME280;3695;53.330;9.876;2023-02-02T04:11:00;104984.31;;;5.20;100.00
7309;BME280;3695;53.330;9.876;2023-02-02T04:13:28;104939.16;;;5.09;100.00
7309;BME280;3695;53.330;9.876;2023-02-02T04:15:56;104926.50;;;5.11;100.00
7309;BME280;3695;53.330;9.876;2023-02-02T04:18:22;105020.66;;;5.28;100.00
7309;BME280;3695;53.330;9.876;2023-02-02T04:20:49;104927.56;;;4.74;100.00
7309;BME280;3695;53.330;9.876;2023-02-02T04:23:15;104907.31;;;4.84;100.00
7309;BME280;3695;53.330;9.876;2023-02-02T04:25:47;104829.97;;;4.72;100.00
7309;BME280;3695;53.330;9.876;2023-02-02T04:28:14;104769.63;;;4.62;100.00
7309;BME280;3695;53.330;9.876;2023-02-02T04:30:42;104768.16;;;4.72;100.00
7309;BME280;3695;53.330;9.876;2023-02-02T04:33:09;104765.97;;;4.63;100.00
7309;BME280;3695;53.330;9.876;2023-02-02T04:35:35;104802.25;;;4.71;100.00
7309;BME280;3695;53.330;9.876;2023-02-02T04:38:01;104813.69;;;4.92;100.00
7309;BME280;3695;53.330;9.876;2023-02-02T04:40:28;104825.16;;;4.96;100.00
7309;BME280;3695;53.330;9.876;2023-02-02T04:42:56;104844.28;;;4.90;100.00
7309;BME280;3695;53.330;9.876;2023-02-02T04:45:22;104899.56;;;4.95;100.00
7309;BME280;3695;53.330;9.876;2023-02-02T04:47:50;104930.41;;;4.88;100.00
7309;BME280;3695;53.330;9.876;2023-02-02T04:50:17;105021.75;;;4.90;100.00
7309;BME280;3695;53.330;9.876;2023-02-02T04:52:43;105080.66;;;4.94;100.00
7309;BME280;3695;53.330;9.876;2023-02-02T04:55:10;105111.03;;;4.96;100.00
7309;BME280;3695;53.330;9.876;2023-02-02T04:57:36;105090.28;;;4.81;100.00
7309;BME280;3695;53.330;9.876;2023-02-02T05:00:03;105116.72;;;4.90;100.00
7309;BME280;3695;53.330;9.876;2023-02-02T05:02:30;105143.56;;;5.09;100.00
7309;BME280;3695;53.330;9.876;2023-02-02T05:04:58;105128.16;;;5.13;100.00
7309;BME280;3695;53.330;9.876;2023-02-02T05:07:24;105120.22;;;5.10;100.00
7309;BME280;3695;53.330;9.876;2023-02-02T05:09:50;105102.16;;;4.94;100.00
7309;BME280;3695;53.330;9.876;2023-02-02T05:12:17;105024.91;;;5.15;100.00
7309;BME280;3695;53.330;9.876;2023-02-02T05:14:43;105019.44;;;5.17;100.00
7309;BME280;3695;53.330;9.876;2023-02-02T05:17:10;104998.16;;;5.12;100.00
7309;BME280;3695;53.330;9.876;2023-02-02T05:19:36;105006.59;;;5.23;100.00
7309;BME280;3695;53.330;9.876;2023-02-02T05:22:04;104981.16;;;5.12;100.00
7309;BME280;3695;53.330;9.876;2023-02-02T05:24:30;104991.06;;;5.11;100.00
7309;BME280;3695;53.330;9.876;2023-02-02T05:26:57;105023.56;;;5.06;100.00
7309;BME280;3695;53.330;9.876;2023-02-02T05:29:25;105059.41;;;5.07;100.00
7309;BME280;3695;53.330;9.876;2023-02-02T05:31:51;105080.03;;;5.06;100.00
7309;BME280;3695;53.330;9.876;2023-02-02T05:34:17;105108.69;;;5.07;100.00
7309;BME280;3695;53.330;9.876;2023-02-02T05:36:44;105156.53;;;5.01;100.00
7309;BME280;3695;53.330;9.876;2023-02-02T05:39:12;105394.31;;;4.55;100.00
7309;BME280;3695;53.330;9.876;2023-02-02T05:41:39;105654.47;;;4.68;100.00
7309;BME280;3695;53.330;9.876;2023-02-02T05:44:05;105608.22;;;4.82;100.00
7309;BME280;3695;53.330;9.876;2023-02-02T05:46:32;105568.88;;;5.01;100.00
7309;BME280;3695;53.330;9.876;2023-02-02T05:48:58;105597.31;;;5.07;100.00
7309;BME280;3695;53.330;9.876;2023-02-02T05:51:27;105616.97;;;5.31;100.00
7309;BME280;3695;53.330;9.876;2023-02-02T05:53:54;105618.56;;;5.35;100.00
7309;BME280;3695;53.330;9.876;2023-02-02T05:56:22;105547.91;;;5.50;100.00
7309;BME280;3695;53.330;9.876;2023-02-02T05:58:48;105464.53;;;5.30;100.00
7309;BME280;3695;53.330;9.876;2023-02-02T06:01:16;105447.03;;;5.20;100.00
7309;BME280;3695;53.330;9.876;2023-02-02T06:03:43;105439.50;;;5.28;100.00
7309;BME280;3695;53.330;9.876;2023-02-02T06:06:10;105447.84;;;5.22;100.00
7309;BME280;3695;53.330;9.876;2023-02-02T06:08:36;105469.63;;;5.36;100.00
7309;BME280;3695;53.330;9.876;2023-02-02T06:11:08;105455.16;;;5.18;100.00
7309;BME280;3695;53.330;9.876;2023-02-02T06:13:36;105473.81;;;5.23;100.00
7309;BME280;3695;53.330;9.876;2023-02-02T06:16:03;105493.59;;;5.22;100.00
7309;BME280;3695;53.330;9.876;2023-02-02T06:18:29;105515.91;;;5.24;100.00
7309;BME280;3695;53.330;9.876;2023-02-02T06:20:56;105566.63;;;5.33;100.00
7309;BME280;3695;53.330;9.876;2023-02-02T06:23:23;105611.25;;;5.38;100.00
7309;BME280;3695;53.330;9.876;2023-02-02T06:25:49;105594.94;;;5.21;100.00
7309;BME280;3695;53.330;9.876;2023-02-02T06:28:16;105615.75;;;5.38;100.00
7309;BME280;3695;53.330;9.876;2023-02-02T06:30:44;105600.00;;;5.29;100.00
7309;BME280;3695;53.330;9.876;2023-02-02T06:33:10;105629.16;;;5.18;100.00
7309;BME280;3695;53.330;9.876;2023-02-02T06:35:37;105638.75;;;5.25;100.00
7309;BME280;3695;53.330;9.876;2023-02-02T06:38:04;105629.09;;;5.19;100.00
7309;BME280;3695;53.330;9.876;2023-02-02T06:40:30;105647.22;;;5.36;100.00
7309;BME280;3695;53.330;9.876;2023-02-02T06:42:57;105619.25;;;5.40;100.00
7309;BME280;3695;53.330;9.876;2023-02-02T06:45:23;105613.88;;;5.40;100.00
7309;BME280;3695;53.330;9.876;2023-02-02T06:47:51;105564.03;;;5.10;100.00
7309;BME280;3695;53.330;9.876;2023-02-02T06:50:18;105590.53;;;5.19;100.00
7309;BME280;3695;53.330;9.876;2023-02-02T06:52:48;105603.31;;;5.14;100.00
7309;BME280;3695;53.330;9.876;2023-02-02T06:55:15;105627.97;;;5.25;100.00
7309;BME280;3695;53.330;9.876;2023-02-02T06:57:42;105608.34;;;5.23;100.00
7309;BME280;3695;53.330;9.876;2023-02-02T07:00:10;105589.91;;;5.34;100.00
7309;BME280;3695;53.330;9.876;2023-02-02T07:02:36;105563.13;;;5.31;100.00
7309;BME280;3695;53.330;9.876;2023-02-02T07:05:05;105536.63;;;5.22;100.00
7309;BME280;3695;53.330;9.876;2023-02-02T07:07:31;105489.53;;;5.32;100.00
7309;BME280;3695;53.330;9.876;2023-02-02T07:09:58;105473.00;;;5.21;100.00
7309;BME280;3695;53.330;9.876;2023-02-02T07:12:25;105432.59;;;5.22;100.00
7309;BME280;3695;53.330;9.876;2023-02-02T07:14:52;105454.19;;;5.21;100.00
7309;BME280;3695;53.330;9.876;2023-02-02T07:17:18;105437.09;;;5.01;100.00
7309;BME280;3695;53.330;9.876;2023-02-02T07:19:45;105455.63;;;5.07;100.00
7309;BME280;3695;53.330;9.876;2023-02-02T07:22:13;105524.13;;;5.21;100.00
7309;BME280;3695;53.330;9.876;2023-02-02T07:24:40;105507.72;;;5.27;100.00
7309;BME280;3695;53.330;9.876;2023-02-02T07:27:06;105512.00;;;5.11;100.00
7309;BME280;3695;53.330;9.876;2023-02-02T07:29:33;105537.31;;;5.27;100.00
7309;BME280;3695;53.330;9.876;2023-02-02T07:31:59;105486.84;;;5.12;100.00
7309;BME280;3695;53.330;9.876;2023-02-02T07:34:25;105487.72;;;5.12;100.00
7309;BME280;3695;53.330;9.876;2023-02-02T07:36:52;105533.75;;;5.26;100.00
7309;BME280;3695;53.330;9.876;2023-02-02T07:39:20;105501.38;;;5.28;100.00
7309;BME280;3695;53.330;9.876;2023-02-02T07:41:46;105464.06;;;5.20;100.00
7309;BME280;3695;53.330;9.876;2023-02-02T07:44:13;105483.50;;;5.27;100.00
7309;BME280;3695;53.330;9.876;2023-02-02T07:46:40;105494.78;;;5.35;100.00
7309;BME280;3695;53.330;9.876;2023-02-02T07:49:11;105484.31;;;5.29;100.00
7309;BME280;3695;53.330;9.876;2023-02-02T07:51:37;105461.16;;;5.25;100.00
7309;BME280;3695;53.330;9.876;2023-02-02T07:54:04;105444.16;;;5.24;100.00
7309;BME280;3695;53.330;9.876;2023-02-02T07:56:32;105439.78;;;5.22;100.00
7309;BME280;3695;53.330;9.876;2023-02-02T07:58:58;105451.34;;;5.24;100.00
7309;BME280;3695;53.330;9.876;2023-02-02T08:01:26;105484.97;;;5.34;100.00
7309;BME280;3695;53.330;9.876;2023-02-02T08:03:55;105485.97;;;5.11;100.00
7309;BME280;3695;53.330;9.876;2023-02-02T08:06:24;105507.84;;;5.24;100.00
7309;BME280;3695;53.330;9.876;2023-02-02T08:08:52;105496.88;;;5.28;100.00
7309;BME280;3695;53.330;9.876;2023-02-02T08:11:20;105501.44;;;5.47;100.00
7309;BME280;3695;53.330;9.876;2023-02-02T08:13:50;105479.97;;;5.45;100.00
7309;BME280;3695;53.330;9.876;2023-02-02T08:16:17;105456.03;;;5.39;100.00
7309;BME280;3695;53.330;9.876;2023-02-02T08:18:44;105508.69;;;5.45;100.00
7309;BME280;3695;53.330;9.876;2023-02-02T08:21:11;105539.19;;;5.45;100.00
7309;BME280;3695;53.330;9.876;2023-02-02T08:23:38;105567.25;;;5.40;100.00
7309;BME280;3695;53.330;9.876;2023-02-02T08:26:07;105556.81;;;5.52;100.00
7309;BME280;3695;53.330;9.876;2023-02-02T08:28:34;105506.69;;;5.29;100.00
7309;BME280;3695;53.330;9.876;2023-02-02T08:31:07;105445.03;;;5.25;100.00
7309;BME280;3695;53.330;9.876;2023-02-02T08:33:34;105453.34;;;5.39;100.00
7309;BME280;3695;53.330;9.876;2023-02-02T08:36:01;105423.63;;;5.22;100.00
7309;BME280;3695;53.330;9.876;2023-02-02T08:38:28;105457.41;;;5.48;100.00
7309;BME280;3695;53.330;9.876;2023-02-02T08:40:55;105483.56;;;5.64;100.00
7309;BME280;3695;53.330;9.876;2023-02-02T08:43:21;105442.88;;;5.52;100.00
7309;BME280;3695;53.330;9.876;2023-02-02T08:45:49;105449.13;;;5.52;100.00
7309;BME280;3695;53.330;9.876;2023-02-02T08:48:17;105491.38;;;5.71;100.00
7309;BME280;3695;53.330;9.876;2023-02-02T08:50:50;105444.41;;;5.57;100.00
7309;BME280;3695;53.330;9.876;2023-02-02T08:53:17;105402.56;;;5.50;100.00
7309;BME280;3695;53.330;9.876;2023-02-02T08:55:43;105380.59;;;5.59;100.00
7309;BME280;3695;53.330;9.876;2023-02-02T08:58:10;105419.63;;;5.69;100.00
7309;BME280;3695;53.330;9.876;2023-02-02T09:00:36;105421.22;;;5.74;100.00
7309;BME280;3695;53.330;9.876;2023-02-02T09:03:03;105411.41;;;5.73;100.00
7309;BME280;3695;53.330;9.876;2023-02-02T09:05:31;105394.38;;;5.72;100.00
7309;BME280;3695;53.330;9.876;2023-02-02T09:07:59;105427.75;;;5.87;100.00
7309;BME280;3695;53.330;9.876;2023-02-02T09:10:25;105419.34;;;5.76;100.00
7309;BME280;3695;53.330;9.876;2023-02-02T09:12:51;105394.28;;;5.74;100.00
7309;BME280;3695;53.330;9.876;2023-02-02T09:15:18;105364.75;;;5.72;100.00
7309;BME280;3695;53.330;9.876;2023-02-02T09:17:44;105378.88;;;5.96;100.00
7309;BME280;3695;53.330;9.876;2023-02-02T09:20:11;105348.06;;;5.64;100.00
7309;BME280;3695;53.330;9.876;2023-02-02T09:22:39;105352.34;;;5.87;100.00
7309;BME280;3695;53.330;9.876;2023-02-02T09:25:06;105304.19;;;5.81;100.00
7309;BME280;3695;53.330;9.876;2023-02-02T09:27:36;105323.66;;;6.05;100.00
7309;BME280;3695;53.330;9.876;2023-02-02T09:30:03;105299.16;;;6.09;100.00
7309;BME280;3695;53.330;9.876;2023-02-02T09:32:29;105282.78;;;6.31;100.00
7309;BME280;3695;53.330;9.876;2023-02-02T09:34:56;105226.59;;;6.23;100.00
7309;BME280;3695;53.330;9.876;2023-02-02T09:37:22;105171.59;;;6.10;100.00
7309;BME280;3695;53.330;9.876;2023-02-02T09:39:50;105140.09;;;5.95;100.00
7309;BME280;3695;53.330;9.876;2023-02-02T09:42:28;105095.19;;;5.95;100.00
7309;BME280;3695;53.330;9.876;2023-02-02T09:45:02;105067.41;;;6.11;100.00
7309;BME280;3695;53.330;9.876;2023-02-02T09:47:40;105032.03;;;6.01;100.00
7309;BME280;3695;53.330;9.876;2023-02-02T09:50:16;104994.19;;;6.20;100.00
7309;BME280;3695;53.330;9.876;2023-02-02T09:52:45;104971.03;;;6.47;100.00
7309;BME280;3695;53.330;9.876;2023-02-02T09:55:17;104900.81;;;6.35;100.00
7309;BME280;3695;53.330;9.876;2023-02-02T09:57:50;104850.75;;;6.30;100.00
7309;BME280;3695;53.330;9.876;2023-02-02T10:00:26;104799.97;;;6.39;100.00
7309;BME280;3695;53.330;9.876;2023-02-02T10:02:59;104780.38;;;6.65;100.00
7309;BME280;3695;53.330;9.876;2023-02-02T10:05:32;104750.63;;;6.67;100.00
7309;BME280;3695;53.330;9.876;2023-02-02T10:08:02;104698.31;;;6.55;100.00
7309;BME280;3695;53.330;9.876;2023-02-02T10:10:38;104622.78;;;6.28;100.00
7309;BME280;3695;53.330;9.876;2023-02-02T10:13:09;104650.59;;;6.43;100.00
7309;BME280;3695;53.330;9.876;2023-02-02T10:15:40;104628.72;;;6.61;100.00
7309;BME280;3695;53.330;9.876;2023-02-02T10:18:13;104622.09;;;6.67;100.00
7309;BME280;3695;53.330;9.876;2023-02-02T10:20:46;104593.59;;;6.63;100.00
7309;BME280;3695;53.330;9.876;2023-02-02T10:23:22;104572.78;;;6.65;100.00
7309;BME280;3695;53.330;9.876;2023-02-02T10:25:55;104512.78;;;6.35;100.00
7309;BME280;3695;53.330;9.876;2023-02-02T10:28:37;104536.38;;;6.58;100.00
7309;BME280;3695;53.330;9.876;2023-02-02T10:31:10;104480.53;;;6.60;100.00
7309;BME280;3695;53.330;9.876;2023-02-02T10:33:51;104436.31;;;6.50;100.00
7309;BME280;3695;53.330;9.876;2023-02-02T10:36:25;104452.38;;;6.78;100.00
7309;BME280;3695;53.330;9.876;2023-02-02T10:38:59;104371.16;;;6.70;100.00
7309;BME280;3695;53.330;9.876;2023-02-02T10:41:33;104339.56;;;6.85;100.00
7309;BME280;3695;53.330;9.876;2023-02-02T10:44:09;104261.03;;;6.89;100.00
7309;BME280;3695;53.330;9.876;2023-02-02T10:46:43;104106.84;;;6.59;100.00
7309;BME280;3695;53.330;9.876;2023-02-02T10:49:20;104037.16;;;6.78;100.00
7309;BME280;3695;53.330;9.876;2023-02-02T10:51:52;103974.25;;;6.54;100.00
7309;BME280;3695;53.330;9.876;2023-02-02T10:54:36;103919.72;;;6.50;100.00
7309;BME280;3695;53.330;9.876;2023-02-02T10:57:09;103904.31;;;6.28;100.00
7309;BME280;3695;53.330;9.876;2023-02-02T10:59:43;103887.13;;;6.66;100.00
7309;BME280;3695;53.330;9.876;2023-02-02T11:02:14;103822.59;;;6.52;100.00
7309;BME280;3695;53.330;9.876;2023-02-02T11:04:41;103745.44;;;6.51;100.00
7309;BME280;3695;53.330;9.876;2023-02-02T11:07:25;103721.84;;;6.77;100.00
7309;BME280;3695;53.330;9.876;2023-02-02T11:09:51;103680.91;;;7.16;100.00
7309;BME280;3695;53.330;9.876;2023-02-02T11:12:24;103602.00;;;7.35;100.00
7309;BME280;3695;53.330;9.876;2023-02-02T11:14:58;103530.44;;;7.20;100.00
7309;BME280;3695;53.330;9.876;2023-02-02T11:17:27;103460.28;;;6.99;100.00
7309;BME280;3695;53.330;9.876;2023-02-02T11:19:53;103362.81;;;7.04;100.00
7309;BME280;3695;53.330;9.876;2023-02-02T11:22:27;103322.34;;;7.04;100.00
7309;BME280;3695;53.330;9.876;2023-02-02T11:24:54;103266.63;;;6.83;100.00
7309;BME280;3695;53.330;9.876;2023-02-02T11:27:25;103227.88;;;6.84;100.00
7309;BME280;3695;53.330;9.876;2023-02-02T11:29:53;103205.88;;;7.10;100.00
7309;BME280;3695;53.330;9.876;2023-02-02T11:32:26;103135.13;;;6.97;100.00
7309;BME280;3695;53.330;9.876;2023-02-02T11:35:13;103100.09;;;6.97;100.00
7309;BME280;3695;53.330;9.876;2023-02-02T11:37:52;103056.72;;;7.38;100.00
7309;BME280;3695;53.330;9.876;2023-02-02T11:40:26;103031.16;;;7.42;100.00
7309;BME280;3695;53.330;9.876;2023-02-02T11:42:56;102959.34;;;7.22;100.00
7309;BME280;3695;53.330;9.876;2023-02-02T11:45:29;102904.97;;;7.17;100.00
7309;BME280;3695;53.330;9.876;2023-02-02T11:48:05;102860.13;;;7.16;100.00
7309;BME280;3695;53.330;9.876;2023-02-02T11:50:33;102807.03;;;7.16;100.00
7309;BME280;3695;53.330;9.876;2023-02-02T11:53:00;102798.84;;;6.99;100.00
7309;BME280;3695;53.330;9.876;2023-02-02T11:55:28;102794.06;;;6.83;100.00
7309;BME280;3695;53.330;9.876;2023-02-02T11:58:22;102771.81;;;6.71;100.00
7309;BME280;3695;53.330;9.876;2023-02-02T12:00:54;102746.97;;;6.77;100.00
7309;BME280;3695;53.330;9.876;2023-02-02T12:03:29;102746.16;;;6.67;100.00
7309;BME280;3695;53.330;9.876;2023-02-02T12:05:56;102728.69;;;6.61;100.00
7309;BME280;3695;53.330;9.876;2023-02-02T12:08:23;102736.78;;;6.71;100.00
7309;BME280;3695;53.330;9.876;2023-02-02T12:10:55;102751.97;;;6.62;100.00
7309;BME280;3695;53.330;9.876;2023-02-02T12:13:36;102750.38;;;6.79;100.00
7309;BME280;3695;53.330;9.876;2023-02-02T12:16:16;102752.22;;;6.79;100.00
7309;BME280;3695;53.330;9.876;2023-02-02T12:18:55;102764.03;;;7.15;100.00
7309;BME280;3695;53.330;9.876;2023-02-02T12:21:33;102756.81;;;7.15;100.00
7309;BME280;3695;53.330;9.876;2023-02-02T12:24:17;102753.19;;;6.87;100.00
7309;BME280;3695;53.330;9.876;2023-02-02T12:26:49;102772.06;;;7.34;100.00
7309;BME280;3695;53.330;9.876;2023-02-02T12:29:34;102765.75;;;7.16;100.00
7309;BME280;3695;53.330;9.876;2023-02-02T12:32:20;102753.59;;;6.92;100.00
7309;BME280;3695;53.330;9.876;2023-02-02T12:34:57;102769.84;;;7.20;100.00
7309;BME280;3695;53.330;9.876;2023-02-02T12:37:38;102758.06;;;7.21;100.00
7309;BME280;3695;53.330;9.876;2023-02-02T12:40:27;102772.34;;;7.31;100.00
7309;BME280;3695;53.330;9.876;2023-02-02T12:43:04;102749.06;;;6.93;100.00
7309;BME280;3695;53.330;9.876;2023-02-02T12:45:53;102722.75;;;7.05;100.00
7309;BME280;3695;53.330;9.876;2023-02-02T12:48:33;102704.06;;;6.93;100.00
7309;BME280;3695;53.330;9.876;2023-02-02T12:51:13;102676.56;;;6.90;100.00
7309;BME280;3695;53.330;9.876;2023-02-02T12:53:58;102678.78;;;7.04;100.00
7309;BME280;3695;53.330;9.876;2023-02-02T12:56:31;102685.91;;;6.95;100.00
7309;BME280;3695;53.330;9.876;2023-02-02T12:59:05;102694.44;;;6.91;100.00
7309;BME280;3695;53.330;9.876;2023-02-02T13:01:47;102698.47;;;6.77;100.00
7309;BME280;3695;53.330;9.876;2023-02-02T13:04:40;102698.69;;;6.93;100.00
7309;BME280;3695;53.330;9.876;2023-02-02T13:07:37;102695.41;;;7.00;100.00
7309;BME280;3695;53.330;9.876;2023-02-02T13:10:11;102713.91;;;6.85;100.00
7309;BME280;3695;53.330;9.876;2023-02-02T13:12:44;102702.06;;;6.95;100.00
7309;BME280;3695;53.330;9.876;2023-02-02T13:15:16;102692.81;;;7.08;100.00
7309;BME280;3695;53.330;9.876;2023-02-02T13:17:48;102680.16;;;7.08;100.00
7309;BME280;3695;53.330;9.876;2023-02-02T13:20:25;102687.34;;;7.27;100.00
7309;BME280;3695;53.330;9.876;2023-02-02T13:22:56;102679.91;;;7.02;100.00
7309;BME280;3695;53.330;9.876;2023-02-02T13:25:26;102672.38;;;7.05;100.00
7309;BME280;3695;53.330;9.876;2023-02-02T13:27:55;102688.34;;;7.26;100.00
7309;BME280;3695;53.330;9.876;2023-02-02T13:30:28;102679.06;;;7.11;100.00